Wetterstation Vordersexau
Wetterdaten: Woche 03.04.17 - 09.04.17 (KW14)
Datum Zeit Temp. A. Feuchte A. Luftdruck Regen Wind Richtung Taupunkt Windchill Windben
03.04.2017 00:00 11,2 C 79 % 1019,3 hPa 0,0 l/m 0,0 km/h N-NO 7,7 C 11,2 C 0,0 km/h
03.04.2017 01:00 8,9 C 81 % 1019,7 hPa 0,0 l/m 0,0 km/h NO 5,8 C 8,9 C 0,0 km/h
03.04.2017 02:00 9,9 C 83 % 1019,4 hPa 0,0 l/m 0,0 km/h SO 7,2 C 9,9 C 0,0 km/h
03.04.2017 03:00 10,4 C 84 % 1019,5 hPa 0,0 l/m 0,0 km/h N-NO 7,8 C 10,4 C 0,0 km/h
03.04.2017 04:00 10,6 C 82 % 1019,5 hPa 0,0 l/m 0,0 km/h N-NO 7,7 C 10,6 C 0,0 km/h
03.04.2017 05:00 8,1 C 83 % 1019,6 hPa 0,0 l/m 0,0 km/h O 5,4 C 8,1 C 0,0 km/h
03.04.2017 06:00 6,9 C 85 % 1019,7 hPa 0,0 l/m 0,0 km/h O-NO 4,6 C 6,9 C 0,0 km/h
03.04.2017 07:00 5,7 C 85 % 1020,1 hPa 0,0 l/m 0,0 km/h O 3,4 C 5,7 C 0,0 km/h
03.04.2017 08:00 5,9 C 84 % 1020,5 hPa 0,0 l/m 0,0 km/h W 3,4 C 5,9 C 0,0 km/h
03.04.2017 09:00 11,4 C 84 % 1021,0 hPa 0,0 l/m 0,0 km/h W-NW 8,8 C 11,4 C 0,0 km/h
03.04.2017 10:00 13,6 C 75 % 1021,1 hPa 0,0 l/m 0,0 km/h W 9,3 C 13,6 C 0,0 km/h
03.04.2017 11:00 15,8 C 70 % 1020,8 hPa 0,0 l/m 0,0 km/h W 10,3 C 15,8 C 0,0 km/h
03.04.2017 12:00 19,2 C 63 % 1020,8 hPa 0,0 l/m 7,1 km/h W-NW 12,0 C 18,9 C 4,0 km/h
03.04.2017 13:00 20,6 C 57 % 1020,2 hPa 0,0 l/m 4,5 km/h N 11,8 C 20,6 C 2,5 km/h
03.04.2017 14:00 22,4 C 49 % 1019,8 hPa 0,0 l/m 0,0 km/h O-NO 11,2 C 22,4 C 0,0 km/h
03.04.2017 15:00 23,9 C 48 % 1019,4 hPa 0,0 l/m 0,0 km/h O-SO 12,2 C 23,9 C 0,0 km/h
03.04.2017 16:00 18,4 C 59 % 1019,3 hPa 0,0 l/m 0,0 km/h SO 10,2 C 18,4 C 0,0 km/h
03.04.2017 17:00 19,5 C 55 % 1019,2 hPa 0,0 l/m 0,0 km/h N-NO 10,2 C 19,5 C 0,0 km/h
03.04.2017 18:00 17,9 C 58 % 1019,0 hPa 0,0 l/m 0,0 km/h S-SO 9,5 C 17,9 C 0,0 km/h
03.04.2017 19:00 17,5 C 65 % 1019,0 hPa 0,0 l/m 0,0 km/h S-SW 10,8 C 17,5 C 0,0 km/h
03.04.2017 20:00 15,7 C 67 % 1019,2 hPa 0,0 l/m 0,0 km/h S-SW 9,6 C 15,7 C 0,0 km/h
03.04.2017 21:00 11,9 C 74 % 1019,7 hPa 0,0 l/m 0,0 km/h O-SO 7,4 C 11,9 C 0,0 km/h
03.04.2017 22:00 10,8 C 80 % 1020,0 hPa 0,0 l/m 0,0 km/h O-SO 7,5 C 10,8 C 0,0 km/h
03.04.2017 23:00 10,3 C 82 % 1020,0 hPa 0,0 l/m 0,0 km/h O-SO 7,4 C 10,3 C 0,0 km/h
04.04.2017 00:00 9,3 C 83 % 1019,8 hPa 0,0 l/m 0,0 km/h O-SO 6,6 C 9,3 C 0,0 km/h
04.04.2017 01:00 8,6 C 84 % 1019,9 hPa 0,0 l/m 0,0 km/h O-SO 6,1 C 8,6 C 0,0 km/h
04.04.2017 02:00 6,9 C 85 % 1019,8 hPa 0,0 l/m 0,0 km/h O-SO 4,6 C 6,9 C 0,0 km/h
04.04.2017 03:00 7,4 C 85 % 1019,5 hPa 0,0 l/m 0,0 km/h O-SO 5,0 C 7,4 C 0,0 km/h
04.04.2017 04:00 7,1 C 85 % 1019,4 hPa 0,0 l/m 0,0 km/h O-SO 4,8 C 7,1 C 0,0 km/h
04.04.2017 05:00 5,4 C 85 % 1019,3 hPa 0,0 l/m 0,0 km/h O-SO 3,1 C 5,4 C 0,0 km/h
04.04.2017 06:00 5,4 C 85 % 1019,3 hPa 0,0 l/m 0,0 km/h O-SO 3,1 C 5,4 C 0,0 km/h
04.04.2017 07:00 5,5 C 85 % 1019,5 hPa 0,0 l/m 0,0 km/h O 3,2 C 5,5 C 0,0 km/h
04.04.2017 08:00 6,4 C 84 % 1019,5 hPa 0,0 l/m 0,0 km/h O 3,9 C 6,4 C 0,0 km/h
04.04.2017 09:00 8,5 C 84 % 1019,9 hPa 0,0 l/m 0,0 km/h NO 6,0 C 8,5 C 0,0 km/h
04.04.2017 10:00 9,9 C 83 % 1019,9 hPa 0,0 l/m 0,0 km/h W 7,2 C 9,9 C 0,0 km/h
04.04.2017 11:00 14,9 C 71 % 1020,2 hPa 0,0 l/m 0,0 km/h NW 9,7 C 14,9 C 0,0 km/h
04.04.2017 12:00 18,2 C 59 % 1020,0 hPa 0,0 l/m 0,0 km/h W-NW 10,1 C 18,2 C 0,0 km/h
04.04.2017 13:00 15,0 C 63 % 1019,9 hPa 0,0 l/m 3,2 km/h S-SO 8,0 C 15,0 C 1,8 km/h
04.04.2017 14:00 21,2 C 56 % 1019,2 hPa 0,0 l/m 0,0 km/h N-NO 12,1 C 21,2 C 0,0 km/h
04.04.2017 15:00 19,9 C 44 % 1018,8 hPa 0,0 l/m 0,0 km/h N 7,3 C 19,9 C 0,0 km/h
04.04.2017 16:00 21,1 C 40 % 1018,4 hPa 0,0 l/m 0,0 km/h N 7,0 C 21,1 C 0,0 km/h
04.04.2017 17:00 17,6 C 43 % 1018,3 hPa 0,0 l/m 12,3 km/h N-NO 4,9 C 15,2 C 6,8 km/h
04.04.2017 18:00 16,6 C 46 % 1018,1 hPa 0,0 l/m 0,0 km/h NW 4,9 C 16,6 C 0,0 km/h
04.04.2017 19:00 15,8 C 51 % 1018,3 hPa 0,0 l/m 0,0 km/h NW 5,7 C 15,8 C 0,0 km/h
04.04.2017 20:00 13,2 C 58 % 1018,4 hPa 0,0 l/m 0,0 km/h NO 5,1 C 13,2 C 0,0 km/h
04.04.2017 21:00 9,8 C 68 % 1018,7 hPa 0,0 l/m 0,0 km/h O-NO 4,2 C 9,8 C 0,0 km/h
04.04.2017 22:00 8,4 C 72 % 1019,2 hPa 0,0 l/m 0,0 km/h O-NO 3,7 C 8,4 C 0,0 km/h
04.04.2017 23:00 7,5 C 75 % 1019,4 hPa 0,0 l/m 0,0 km/h O-SO 3,4 C 7,5 C 0,0 km/h
05.04.2017 00:00 7,5 C 79 % 1019,2 hPa 0,0 l/m 21,4 km/h O-SO 4,1 C -0,4 C 11,9 km/h
05.04.2017 01:00 9,0 C 78 % 1018,9 hPa 0,0 l/m 0,0 km/h SO 5,4 C 9,0 C 0,0 km/h
05.04.2017 02:00 8,9 C 79 % 1019,1 hPa 0,0 l/m 0,0 km/h O-SO 5,5 C 8,9 C 0,0 km/h
05.04.2017 03:00 7,9 C 80 % 1018,6 hPa 0,0 l/m 0,0 km/h O-SO 4,7 C 7,9 C 0,0 km/h
05.04.2017 04:00 6,9 C 82 % 1018,5 hPa 0,0 l/m 0,0 km/h O 4,0 C 6,9 C 0,0 km/h
05.04.2017 05:00 6,0 C 84 % 1018,9 hPa 0,0 l/m 0,0 km/h O-SO 3,5 C 6,0 C 0,0 km/h
05.04.2017 06:00 6,3 C 84 % 1019,3 hPa 0,0 l/m 1,9 km/h O-SO 3,8 C 6,3 C 1,1 km/h
05.04.2017 07:00 5,9 C 84 % 1019,4 hPa 0,0 l/m 0,0 km/h O-SO 3,4 C 5,9 C 0,0 km/h
05.04.2017 08:00 6,1 C 84 % 1020,1 hPa 0,0 l/m 0,0 km/h O-SO 3,6 C 6,1 C 0,0 km/h
05.04.2017 09:00 10,9 C 84 % 1020,6 hPa 0,0 l/m 0,0 km/h W-NW 8,3 C 10,9 C 0,0 km/h
05.04.2017 10:00 16,4 C 59 % 1020,8 hPa 0,0 l/m 0,0 km/h W 8,4 C 16,4 C 0,0 km/h
05.04.2017 11:00 16,9 C 57 % 1020,8 hPa 0,0 l/m 4,5 km/h W-NW 8,3 C 16,9 C 2,5 km/h
05.04.2017 12:00 18,5 C 52 % 1020,3 hPa 0,0 l/m 0,0 km/h N 8,5 C 18,5 C 0,0 km/h
05.04.2017 13:00 19,9 C 45 % 1020,1 hPa 0,0 l/m 16,8 km/h NW 7,6 C 16,7 C 9,4 km/h
05.04.2017 14:00 16,9 C 46 % 1020,2 hPa 0,0 l/m 7,1 km/h W 5,2 C 16,5 C 4,0 km/h
05.04.2017 15:00 17,8 C 46 % 1019,8 hPa 0,0 l/m 5,2 km/h N-NO 6,0 C 17,8 C 2,9 km/h
05.04.2017 16:00 18,0 C 44 % 1019,5 hPa 0,0 l/m 6,5 km/h N-NO 5,6 C 18,0 C 3,6 km/h
05.04.2017 17:00 19,4 C 41 % 1018,8 hPa 0,0 l/m 0,0 km/h N-NO 5,8 C 19,4 C 0,0 km/h
05.04.2017 18:00 18,6 C 39 % 1019,1 hPa 0,0 l/m 0,0 km/h N 4,4 C 18,6 C 0,0 km/h
05.04.2017 19:00 15,8 C 45 % 1019,2 hPa 0,0 l/m 0,0 km/h N 3,9 C 15,8 C 0,0 km/h
05.04.2017 20:00 12,9 C 52 % 1019,4 hPa 0,0 l/m 0,0 km/h N 3,3 C 12,9 C 0,0 km/h
05.04.2017 21:00 9,6 C 63 % 1019,8 hPa 0,0 l/m 0,0 km/h N 2,9 C 9,6 C 0,0 km/h
05.04.2017 22:00 8,8 C 69 % 1020,2 hPa 0,0 l/m 0,0 km/h NO 3,4 C 8,8 C 0,0 km/h
05.04.2017 23:00 8,5 C 72 % 1020,4 hPa 0,0 l/m 0,0 km/h NO 3,7 C 8,5 C 0,0 km/h
06.04.2017 00:00 6,8 C 75 % 1020,6 hPa 0,0 l/m 0,0 km/h NO 2,7 C 6,8 C 0,0 km/h
06.04.2017 01:00 6,5 C 77 % 1020,8 hPa 0,0 l/m 0,0 km/h O-NO 2,8 C 6,5 C 0,0 km/h
06.04.2017 02:00 7,8 C 76 % 1020,9 hPa 0,0 l/m 0,0 km/h O-NO 3,8 C 7,8 C 0,0 km/h
06.04.2017 03:00 8,1 C 76 % 1020,8 hPa 0,0 l/m 0,0 km/h NO 4,1 C 8,1 C 0,0 km/h
06.04.2017 04:00 8,1 C 75 % 1020,5 hPa 0,0 l/m 0,0 km/h NO 3,9 C 8,1 C 0,0 km/h
06.04.2017 05:00 7,3 C 77 % 1020,8 hPa 0,0 l/m 0,0 km/h N 3,5 C 7,3 C 0,0 km/h
06.04.2017 06:00 8,1 C 74 % 1021,2 hPa 0,0 l/m 0,6 km/h N-NO 3,8 C 8,1 C 0,4 km/h
06.04.2017 07:00 7,8 C 69 % 1021,4 hPa 0,0 l/m 0,0 km/h N 2,5 C 7,8 C 0,0 km/h
06.04.2017 08:00 7,3 C 71 % 1022,3 hPa 0,0 l/m 0,0 km/h N 2,4 C 7,3 C 0,0 km/h
06.04.2017 09:00 10,1 C 65 % 1022,6 hPa 0,0 l/m 0,0 km/h N 3,8 C 10,1 C 0,0 km/h
06.04.2017 10:00 12,3 C 56 % 1022,7 hPa 0,0 l/m 6,5 km/h N-NO 3,8 C 12,3 C 3,6 km/h
06.04.2017 11:00 13,9 C 50 % 1023,0 hPa 0,0 l/m 14,3 km/h N 3,7 C 10,1 C 7,9 km/h
06.04.2017 12:00 14,7 C 47 % 1023,1 hPa 0,0 l/m 0,0 km/h W-NW 3,5 C 14,7 C 0,0 km/h
06.04.2017 13:00 15,9 C 43 % 1022,9 hPa 0,0 l/m 7,8 km/h N 3,3 C 15,1 C 4,3 km/h
06.04.2017 14:00 16,1 C 40 % 1022,7 hPa 0,0 l/m 14,9 km/h N-NW 2,5 C 12,6 C 8,3 km/h
06.04.2017 15:00 16,3 C 41 % 1022,4 hPa 0,0 l/m 9,7 km/h N-NO 3,0 C 14,7 C 5,4 km/h
06.04.2017 16:00 16,8 C 40 % 1022,0 hPa 0,0 l/m 9,7 km/h N-NO 3,1 C 15,2 C 5,4 km/h
06.04.2017 17:00 16,9 C 39 % 1022,1 hPa 0,0 l/m 9,7 km/h NW 2,9 C 15,3 C 5,4 km/h
06.04.2017 18:00 18,5 C 36 % 1021,9 hPa 0,0 l/m 13,6 km/h N-NW 3,2 C 15,8 C 7,6 km/h
06.04.2017 19:00 16,5 C 38 % 1022,1 hPa 0,0 l/m 9,1 km/h N 2,1 C 15,2 C 5,0 km/h
06.04.2017 20:00 10,6 C 49 % 1022,5 hPa 0,0 l/m 0,0 km/h N-NO 0,3 C 10,6 C 0,0 km/h
06.04.2017 21:00 7,4 C 58 % 1023,0 hPa 0,0 l/m 0,0 km/h O-NO -0,3 C 7,4 C 0,0 km/h
06.04.2017 22:00 4,7 C 67 % 1023,4 hPa 0,0 l/m 0,0 km/h O-NO -0,9 C 4,7 C 0,0 km/h
06.04.2017 23:00 4,0 C 71 % 1023,7 hPa 0,0 l/m 0,0 km/h O-SO -0,8 C 4,0 C 0,0 km/h
07.04.2017 00:00 3,4 C 74 % 1023,6 hPa 0,0 l/m 0,0 km/h O-SO -0,8 C 3,4 C 0,0 km/h
07.04.2017 01:00 2,1 C 77 % 1023,4 hPa 0,0 l/m 0,0 km/h O -1,5 C 2,1 C 0,0 km/h
07.04.2017 02:00 1,8 C 79 % 1023,3 hPa 0,0 l/m 0,0 km/h O-NO -1,4 C 1,8 C 0,0 km/h
07.04.2017 23:00 7,3 C 71 % 1021,6 hPa 32,1 l/m 0,0 km/h NO 2,4 C 7,3 C 0,0 km/h
08.04.2017 00:00 5,9 C 74 % 1021,6 hPa 0,0 l/m 0,0 km/h NO 1,6 C 5,9 C 0,0 km/h
08.04.2017 01:00 5,6 C 77 % 1021,4 hPa 0,0 l/m 0,0 km/h O-SO 1,9 C 5,6 C 0,0 km/h
08.04.2017 02:00 4,9 C 80 % 1021,4 hPa 0,0 l/m 0,0 km/h O-SO 1,7 C 4,9 C 0,0 km/h
08.04.2017 03:00 4,3 C 80 % 1021,0 hPa 0,0 l/m 0,0 km/h O-SO 1,2 C 4,3 C 0,0 km/h
08.04.2017 04:00 3,5 C 82 % 1020,9 hPa 0,0 l/m 0,0 km/h NO 0,7 C 3,5 C 0,0 km/h
08.04.2017 05:00 2,6 C 84 % 1021,2 hPa 0,0 l/m 0,0 km/h NO 0,2 C 2,6 C 0,0 km/h
08.04.2017 06:00 2,0 C 84 % 1021,2 hPa 0,0 l/m 0,0 km/h NO -0,4 C 2,0 C 0,0 km/h
08.04.2017 07:00 1,4 C 85 % 1021,5 hPa 0,0 l/m 0,0 km/h NO -0,8 C 1,4 C 0,0 km/h
08.04.2017 08:00 2,4 C 85 % 1021,7 hPa 0,0 l/m 0,0 km/h NO 0,1 C 2,4 C 0,0 km/h
08.04.2017 09:00 10,7 C 84 % 1021,7 hPa 0,0 l/m 0,0 km/h N-NO 8,1 C 10,7 C 0,0 km/h
08.04.2017 10:00 16,4 C 58 % 1021,5 hPa 0,0 l/m 0,0 km/h W-NW 8,1 C 16,4 C 0,0 km/h
08.04.2017 11:00 18,1 C 52 % 1021,3 hPa 0,0 l/m 0,0 km/h W-NW 8,1 C 18,1 C 0,0 km/h
08.04.2017 12:00 19,4 C 49 % 1021,1 hPa 0,0 l/m 0,0 km/h N 8,4 C 19,4 C 0,0 km/h
08.04.2017 13:00 21,7 C 44 % 1020,6 hPa 0,0 l/m 0,0 km/h N 8,9 C 21,7 C 0,0 km/h
08.04.2017 14:00 22,7 C 42 % 1020,0 hPa 0,0 l/m 0,0 km/h NW 9,1 C 22,7 C 0,0 km/h
08.04.2017 15:00 23,4 C 41 % 1019,6 hPa 0,0 l/m 0,0 km/h W 9,4 C 23,4 C 0,0 km/h
08.04.2017 16:00 24,6 C 39 % 1019,0 hPa 0,0 l/m 0,0 km/h W 9,7 C 24,6 C 0,0 km/h
08.04.2017 17:00 26,6 C 34 % 1018,6 hPa 0,0 l/m 0,0 km/h W 9,4 C 26,6 C 0,0 km/h
08.04.2017 18:00 27,2 C 30 % 1018,2 hPa 0,0 l/m 7,1 km/h W 8,1 C 27,1 C 4,0 km/h
08.04.2017 19:00 26,0 C 30 % 1018,3 hPa 0,0 l/m 3,9 km/h W 7,1 C 26,0 C 2,2 km/h
08.04.2017 20:00 18,5 C 43 % 1018,4 hPa 0,0 l/m 0,0 km/h W 5,7 C 18,5 C 0,0 km/h
08.04.2017 21:00 11,8 C 60 % 1019,0 hPa 0,0 l/m 0,0 km/h W 4,3 C 11,8 C 0,0 km/h
08.04.2017 22:00 9,8 C 67 % 1019,7 hPa 0,0 l/m 0,0 km/h W 4,0 C 9,8 C 0,0 km/h
08.04.2017 23:00 8,6 C 72 % 1020,0 hPa 0,0 l/m 0,0 km/h W-NW 3,8 C 8,6 C 0,0 km/h
09.04.2017 00:00 7,6 C 76 % 1020,1 hPa 0,0 l/m 0,0 km/h W-NW 3,6 C 7,6 C 0,0 km/h
09.04.2017 01:00 6,3 C 78 % 1020,3 hPa 0,0 l/m 0,0 km/h W-NW 2,8 C 6,3 C 0,0 km/h
09.04.2017 02:00 5,4 C 81 % 1020,5 hPa 0,0 l/m 0,0 km/h W-NW 2,4 C 5,4 C 0,0 km/h
09.04.2017 03:00 4,9 C 82 % 1020,5 hPa 0,0 l/m 0,0 km/h W-NW 2,1 C 4,9 C 0,0 km/h
09.04.2017 04:00 4,1 C 83 % 1020,4 hPa 0,0 l/m 0,0 km/h W-NW 1,5 C 4,1 C 0,0 km/h
09.04.2017 05:00 3,8 C 84 % 1020,4 hPa 0,0 l/m 0,0 km/h W-NW 1,4 C 3,8 C 0,0 km/h
09.04.2017 06:00 3,3 C 84 % 1020,6 hPa 0,0 l/m 0,0 km/h W-NW 0,9 C 3,3 C 0,0 km/h
09.04.2017 07:00 2,9 C 85 % 1021,0 hPa 0,0 l/m 0,0 km/h W-NW 0,6 C 2,9 C 0,0 km/h
09.04.2017 08:00 4,2 C 85 % 1021,4 hPa 0,0 l/m 0,0 km/h W-NW 1,9 C 4,2 C 0,0 km/h
09.04.2017 09:00 13,2 C 82 % 1021,8 hPa 0,0 l/m 0,0 km/h W-NW 10,2 C 13,2 C 0,0 km/h
09.04.2017 10:00 18,7 C 56 % 1021,8 hPa 0,0 l/m 0,0 km/h W-NW 9,7 C 18,7 C 0,0 km/h
09.04.2017 11:00 20,8 C 49 % 1021,8 hPa 0,0 l/m 0,0 km/h W 9,7 C 20,8 C 0,0 km/h
09.04.2017 12:00 22,2 C 47 % 1021,7 hPa 0,0 l/m 3,2 km/h W-NW 10,3 C 22,2 C 1,8 km/h
09.04.2017 13:00 24,8 C 40 % 1021,3 hPa 0,0 l/m 0,0 km/h W 10,3 C 24,8 C 0,0 km/h
09.04.2017 14:00 26,4 C 39 % 1020,6 hPa 0,0 l/m 0,0 km/h SW 11,3 C 26,4 C 0,0 km/h
09.04.2017 15:00 28,3 C 35 % 1020,1 hPa 0,0 l/m 6,5 km/h W-SW 11,4 C 28,3 C 3,6 km/h
09.04.2017 16:00 28,1 C 33 % 1019,5 hPa 0,0 l/m 6,5 km/h S-SO 10,3 C 28,1 C 3,6 km/h
09.04.2017 17:00 33,3 C 25 % 1018,7 hPa 0,0 l/m 3,2 km/h W 10,6 C 33,3 C 1,8 km/h
09.04.2017 18:00 34,9 C 23 % 1018,5 hPa 0,0 l/m 0,0 km/h W-NW 10,7 C 34,9 C 0,0 km/h
09.04.2017 19:00 30,6 C 26 % 1018,3 hPa 0,0 l/m 0,0 km/h W-NW 8,9 C 30,6 C 0,0 km/h
09.04.2017 20:00 21,6 C 41 % 1018,4 hPa 0,0 l/m 0,0 km/h W-NW 7,8 C 21,6 C 0,0 km/h
09.04.2017 21:00 15,1 C 54 % 1018,4 hPa 0,0 l/m 0,0 km/h SO 5,9 C 15,1 C 0,0 km/h
09.04.2017 22:00 12,6 C 63 % 1018,8 hPa 0,0 l/m 0,0 km/h O-SO 5,7 C 12,6 C 0,0 km/h
09.04.2017 23:00 12,3 C 65 % 1018,8 hPa 0,0 l/m 0,0 km/h O-SO 5,9 C 12,3 C 0,0 km/h
Min-Datum _ 08.04.17 09.04.17 04.04.17 - 03.04.17 - 07.04.17 05.04.17 03.04.17
_ Min-Zeit 07:57 18:57 18:57 - 00:57 - 01:57 00:57 00:57
Minimum _ 1,4 C 23 % 1018,1 hPa - 0,0 km/h - -1,5 C -0,4 C 0,0 km/h
Max-Datum _ 09.04.17 03.04.17 06.04.17 07.04.17 05.04.17 - 03.04.17 09.04.17 05.04.17
_ Max-Zeit 18:57 06:57 23:57 23:57 00:57 - 15:57 18:57 00:57
Maximum _ 34,9 C 85 % 1023,7 hPa 32,1 l/m 21,4 km/h
O-SO
- 12,2 C 34,9 C 11,9 km/h
O-SO
Durchschnitt _ 12,7 C 65 % 1020,3 hPa #32,1 l/m 1,5 km/h O-SO 5,4 C 12,5 C 0,8 km/h
www.sexauwetter.de